sensor_id;sensor_type;location;lat;lon;timestamp;temperature;humidity
4010;DHT22;2019;48.200;11.548;2022-07-23T00:02:01;28.00;51.70
4010;DHT22;2019;48.200;11.548;2022-07-23T00:04:26;28.00;51.80
4010;DHT22;2019;48.200;11.548;2022-07-23T00:06:52;28.00;51.80
4010;DHT22;2019;48.200;11.548;2022-07-23T00:09:17;27.90;51.70
4010;DHT22;2019;48.200;11.548;2022-07-23T00:11:43;27.90;51.80
4010;DHT22;2019;48.200;11.548;2022-07-23T00:14:08;27.90;51.90
4010;DHT22;2019;48.200;11.548;2022-07-23T00:16:34;27.80;51.80
4010;DHT22;2019;48.200;11.548;2022-07-23T00:19:00;27.80;51.70
4010;DHT22;2019;48.200;11.548;2022-07-23T00:21:27;27.80;51.70
4010;DHT22;2019;48.200;11.548;2022-07-23T00:23:53;27.80;51.70
4010;DHT22;2019;48.200;11.548;2022-07-23T00:26:19;27.70;51.60
4010;DHT22;2019;48.200;11.548;2022-07-23T00:28:44;27.80;51.80
4010;DHT22;2019;48.200;11.548;2022-07-23T00:31:10;27.70;52.00
4010;DHT22;2019;48.200;11.548;2022-07-23T00:33:35;27.70;52.20
4010;DHT22;2019;48.200;11.548;2022-07-23T00:36:01;27.70;52.30
4010;DHT22;2019;48.200;11.548;2022-07-23T00:38:26;27.70;52.30
4010;DHT22;2019;48.200;11.548;2022-07-23T00:40:52;27.70;52.50
4010;DHT22;2019;48.200;11.548;2022-07-23T00:43:20;27.60;52.50
4010;DHT22;2019;48.200;11.548;2022-07-23T00:45:46;27.60;52.60
4010;DHT22;2019;48.200;11.548;2022-07-23T00:48:11;27.50;52.60
4010;DHT22;2019;48.200;11.548;2022-07-23T00:50:37;27.50;52.60
4010;DHT22;2019;48.200;11.548;2022-07-23T00:53:03;27.50;52.70
4010;DHT22;2019;48.200;11.548;2022-07-23T00:55:29;27.50;52.70
4010;DHT22;2019;48.200;11.548;2022-07-23T00:57:55;27.40;52.70
4010;DHT22;2019;48.200;11.548;2022-07-23T01:00:22;27.40;52.70
4010;DHT22;2019;48.200;11.548;2022-07-23T01:02:48;27.40;52.80
4010;DHT22;2019;48.200;11.548;2022-07-23T01:05:13;27.30;52.80
4010;DHT22;2019;48.200;11.548;2022-07-23T01:07:39;27.30;53.00
4010;DHT22;2019;48.200;11.548;2022-07-23T01:10:06;27.30;53.20
4010;DHT22;2019;48.200;11.548;2022-07-23T01:12:52;27.30;53.50
4010;DHT22;2019;48.200;11.548;2022-07-23T01:15:17;27.20;53.60
4010;DHT22;2019;48.200;11.548;2022-07-23T01:17:43;27.20;53.90
4010;DHT22;2019;48.200;11.548;2022-07-23T01:20:08;27.10;54.10
4010;DHT22;2019;48.200;11.548;2022-07-23T01:22:34;27.10;54.20
4010;DHT22;2019;48.200;11.548;2022-07-23T01:25:00;27.10;53.90
4010;DHT22;2019;48.200;11.548;2022-07-23T01:27:25;27.10;53.50
4010;DHT22;2019;48.200;11.548;2022-07-23T01:29:51;27.10;52.90
4010;DHT22;2019;48.200;11.548;2022-07-23T01:32:17;27.00;52.20
4010;DHT22;2019;48.200;11.548;2022-07-23T01:34:43;26.90;52.30
4010;DHT22;2019;48.200;11.548;2022-07-23T01:37:08;26.90;52.90
4010;DHT22;2019;48.200;11.548;2022-07-23T01:39:34;26.80;53.70
4010;DHT22;2019;48.200;11.548;2022-07-23T01:41:59;26.50;54.30
4010;DHT22;2019;48.200;11.548;2022-07-23T01:44:25;26.40;54.70
4010;DHT22;2019;48.200;11.548;2022-07-23T01:46:51;26.20;54.80
4010;DHT22;2019;48.200;11.548;2022-07-23T01:49:16;26.00;56.30
4010;DHT22;2019;48.200;11.548;2022-07-23T01:51:42;25.80;56.90
4010;DHT22;2019;48.200;11.548;2022-07-23T01:54:28;25.60;57.40
4010;DHT22;2019;48.200;11.548;2022-07-23T01:56:54;25.50;57.90
4010;DHT22;2019;48.200;11.548;2022-07-23T01:59:21;25.30;58.60
4010;DHT22;2019;48.200;11.548;2022-07-23T02:01:47;25.20;59.30
4010;DHT22;2019;48.200;11.548;2022-07-23T02:04:13;25.00;59.60
4010;DHT22;2019;48.200;11.548;2022-07-23T02:06:38;24.90;60.00
4010;DHT22;2019;48.200;11.548;2022-07-23T02:09:04;24.80;60.30
4010;DHT22;2019;48.200;11.548;2022-07-23T02:11:29;24.70;60.70
4010;DHT22;2019;48.200;11.548;2022-07-23T02:13:55;24.60;60.90
4010;DHT22;2019;48.200;11.548;2022-07-23T02:16:20;24.50;61.40
4010;DHT22;2019;48.200;11.548;2022-07-23T02:18:46;24.40;62.00
4010;DHT22;2019;48.200;11.548;2022-07-23T02:21:12;24.30;62.40
4010;DHT22;2019;48.200;11.548;2022-07-23T02:23:38;24.30;62.80
4010;DHT22;2019;48.200;11.548;2022-07-23T02:26:03;24.20;63.20
4010;DHT22;2019;48.200;11.548;2022-07-23T02:28:29;24.20;63.60
4010;DHT22;2019;48.200;11.548;2022-07-23T02:30:55;24.20;64.00
4010;DHT22;2019;48.200;11.548;2022-07-23T02:33:20;24.10;64.30
4010;DHT22;2019;48.200;11.548;2022-07-23T02:35:46;24.10;64.70
4010;DHT22;2019;48.200;11.548;2022-07-23T02:38:12;24.10;65.20
4010;DHT22;2019;48.200;11.548;2022-07-23T02:40:37;24.10;65.40
4010;DHT22;2019;48.200;11.548;2022-07-23T02:43:03;24.10;65.60
4010;DHT22;2019;48.200;11.548;2022-07-23T02:45:29;24.10;65.80
4010;DHT22;2019;48.200;11.548;2022-07-23T02:47:54;24.20;65.90
4010;DHT22;2019;48.200;11.548;2022-07-23T02:50:20;24.20;66.00
4010;DHT22;2019;48.200;11.548;2022-07-23T02:52:46;24.20;65.90
4010;DHT22;2019;48.200;11.548;2022-07-23T02:55:11;24.20;66.00
4010;DHT22;2019;48.200;11.548;2022-07-23T02:57:37;24.20;66.30
4010;DHT22;2019;48.200;11.548;2022-07-23T03:00:04;24.20;66.30
4010;DHT22;2019;48.200;11.548;2022-07-23T03:02:31;24.20;66.20
4010;DHT22;2019;48.200;11.548;2022-07-23T03:04:57;24.20;66.60
4010;DHT22;2019;48.200;11.548;2022-07-23T03:07:22;24.20;66.90
4010;DHT22;2019;48.200;11.548;2022-07-23T03:09:48;24.20;67.00
4010;DHT22;2019;48.200;11.548;2022-07-23T03:12:13;24.20;66.90
4010;DHT22;2019;48.200;11.548;2022-07-23T03:14:39;24.10;67.00
4010;DHT22;2019;48.200;11.548;2022-07-23T03:17:05;24.00;66.60
4010;DHT22;2019;48.200;11.548;2022-07-23T03:19:30;23.90;66.40
4010;DHT22;2019;48.200;11.548;2022-07-23T03:21:56;23.80;66.30
4010;DHT22;2019;48.200;11.548;2022-07-23T03:24:22;23.80;66.60
4010;DHT22;2019;48.200;11.548;2022-07-23T03:26:49;23.70;66.70
4010;DHT22;2019;48.200;11.548;2022-07-23T03:29:15;23.70;67.00
4010;DHT22;2019;48.200;11.548;2022-07-23T03:31:40;23.60;67.20
4010;DHT22;2019;48.200;11.548;2022-07-23T03:34:06;23.60;67.30
4010;DHT22;2019;48.200;11.548;2022-07-23T03:36:31;23.60;67.50
4010;DHT22;2019;48.200;11.548;2022-07-23T03:38:57;23.40;67.40
4010;DHT22;2019;48.200;11.548;2022-07-23T03:41:23;23.50;67.70
4010;DHT22;2019;48.200;11.548;2022-07-23T03:43:48;23.50;67.80
4010;DHT22;2019;48.200;11.548;2022-07-23T03:46:14;23.50;67.70
4010;DHT22;2019;48.200;11.548;2022-07-23T03:48:39;23.40;67.80
4010;DHT22;2019;48.200;11.548;2022-07-23T03:51:05;23.50;68.70
4010;DHT22;2019;48.200;11.548;2022-07-23T03:53:31;23.50;68.90
4010;DHT22;2019;48.200;11.548;2022-07-23T03:55:56;23.50;68.80
4010;DHT22;2019;48.200;11.548;2022-07-23T03:58:22;23.50;69.00
4010;DHT22;2019;48.200;11.548;2022-07-23T04:00:47;23.50;69.30
4010;DHT22;2019;48.200;11.548;2022-07-23T04:03:13;23.50;69.10
4010;DHT22;2019;48.200;11.548;2022-07-23T04:05:39;23.50;69.10
4010;DHT22;2019;48.200;11.548;2022-07-23T04:08:04;23.50;69.20
4010;DHT22;2019;48.200;11.548;2022-07-23T04:10:30;23.40;69.30
4010;DHT22;2019;48.200;11.548;2022-07-23T04:12:55;23.40;69.30
4010;DHT22;2019;48.200;11.548;2022-07-23T04:15:21;23.40;69.30
4010;DHT22;2019;48.200;11.548;2022-07-23T04:17:47;23.40;69.30
4010;DHT22;2019;48.200;11.548;2022-07-23T04:20:12;23.40;69.90
4010;DHT22;2019;48.200;11.548;2022-07-23T04:22:38;23.40;70.50
4010;DHT22;2019;48.200;11.548;2022-07-23T04:25:04;23.40;71.10
4010;DHT22;2019;48.200;11.548;2022-07-23T04:27:30;23.50;71.20
4010;DHT22;2019;48.200;11.548;2022-07-23T04:29:58;23.50;71.10
4010;DHT22;2019;48.200;11.548;2022-07-23T04:32:24;23.50;70.50
4010;DHT22;2019;48.200;11.548;2022-07-23T04:34:50;23.60;70.80
4010;DHT22;2019;48.200;11.548;2022-07-23T04:37:15;23.50;70.60
4010;DHT22;2019;48.200;11.548;2022-07-23T04:39:41;23.50;70.80
4010;DHT22;2019;48.200;11.548;2022-07-23T04:42:07;23.50;70.90
4010;DHT22;2019;48.200;11.548;2022-07-23T04:44:32;23.60;70.90
4010;DHT22;2019;48.200;11.548;2022-07-23T04:46:58;23.60;70.80
4010;DHT22;2019;48.200;11.548;2022-07-23T04:49:23;23.60;71.20
4010;DHT22;2019;48.200;11.548;2022-07-23T04:51:49;23.60;71.80
4010;DHT22;2019;48.200;11.548;2022-07-23T04:54:14;23.60;72.00
4010;DHT22;2019;48.200;11.548;2022-07-23T04:56:40;23.70;72.40
4010;DHT22;2019;48.200;11.548;2022-07-23T04:59:06;23.70;72.20
4010;DHT22;2019;48.200;11.548;2022-07-23T05:01:31;23.70;71.90
4010;DHT22;2019;48.200;11.548;2022-07-23T05:03:57;23.70;71.80
4010;DHT22;2019;48.200;11.548;2022-07-23T05:06:22;23.70;71.70
4010;DHT22;2019;48.200;11.548;2022-07-23T05:08:48;23.80;71.70
4010;DHT22;2019;48.200;11.548;2022-07-23T05:11:14;23.70;71.20
4010;DHT22;2019;48.200;11.548;2022-07-23T05:13:40;23.70;71.30
4010;DHT22;2019;48.200;11.548;2022-07-23T05:16:05;23.70;71.30
4010;DHT22;2019;48.200;11.548;2022-07-23T05:18:31;23.70;71.10
4010;DHT22;2019;48.200;11.548;2022-07-23T05:20:56;23.70;71.00
4010;DHT22;2019;48.200;11.548;2022-07-23T05:23:22;23.70;70.90
4010;DHT22;2019;48.200;11.548;2022-07-23T05:25:48;23.80;71.10
4010;DHT22;2019;48.200;11.548;2022-07-23T05:28:13;23.80;70.80
4010;DHT22;2019;48.200;11.548;2022-07-23T05:30:39;23.80;70.20
4010;DHT22;2019;48.200;11.548;2022-07-23T05:33:04;23.80;70.00
4010;DHT22;2019;48.200;11.548;2022-07-23T05:35:30;23.80;69.80
4010;DHT22;2019;48.200;11.548;2022-07-23T05:37:56;23.80;70.30
4010;DHT22;2019;48.200;11.548;2022-07-23T05:40:21;23.80;71.10
4010;DHT22;2019;48.200;11.548;2022-07-23T05:42:47;23.80;71.70
4010;DHT22;2019;48.200;11.548;2022-07-23T05:45:13;23.80;72.20
4010;DHT22;2019;48.200;11.548;2022-07-23T05:47:46;23.90;72.80
4010;DHT22;2019;48.200;11.548;2022-07-23T05:50:12;23.90;73.30
4010;DHT22;2019;48.200;11.548;2022-07-23T05:52:38;23.90;73.20
4010;DHT22;2019;48.200;11.548;2022-07-23T05:55:05;23.90;73.40
4010;DHT22;2019;48.200;11.548;2022-07-23T05:57:31;23.90;73.60
4010;DHT22;2019;48.200;11.548;2022-07-23T05:59:57;23.90;73.80
4010;DHT22;2019;48.200;11.548;2022-07-23T06:02:23;24.00;73.80
4010;DHT22;2019;48.200;11.548;2022-07-23T06:04:48;24.00;73.70
4010;DHT22;2019;48.200;11.548;2022-07-23T06:07:14;23.90;74.00
4010;DHT22;2019;48.200;11.548;2022-07-23T06:09:39;23.90;73.70
4010;DHT22;2019;48.200;11.548;2022-07-23T06:12:05;24.00;73.80
4010;DHT22;2019;48.200;11.548;2022-07-23T06:14:31;23.90;73.10
4010;DHT22;2019;48.200;11.548;2022-07-23T06:16:57;23.90;72.90
4010;DHT22;2019;48.200;11.548;2022-07-23T06:19:22;23.90;72.70
4010;DHT22;2019;48.200;11.548;2022-07-23T06:21:48;23.90;72.50
4010;DHT22;2019;48.200;11.548;2022-07-23T06:24:13;23.90;73.10
4010;DHT22;2019;48.200;11.548;2022-07-23T06:26:39;23.90;73.50
4010;DHT22;2019;48.200;11.548;2022-07-23T06:29:04;23.90;74.10
4010;DHT22;2019;48.200;11.548;2022-07-23T06:31:30;23.90;74.40
4010;DHT22;2019;48.200;11.548;2022-07-23T06:33:56;23.90;74.70
4010;DHT22;2019;48.200;11.548;2022-07-23T06:36:21;24.00;73.80
4010;DHT22;2019;48.200;11.548;2022-07-23T06:38:47;24.00;72.90
4010;DHT22;2019;48.200;11.548;2022-07-23T06:41:13;24.00;71.50
4010;DHT22;2019;48.200;11.548;2022-07-23T06:43:38;24.00;70.50
4010;DHT22;2019;48.200;11.548;2022-07-23T06:46:04;24.00;70.10
4010;DHT22;2019;48.200;11.548;2022-07-23T06:48:30;23.90;69.70
4010;DHT22;2019;48.200;11.548;2022-07-23T06:50:55;23.90;69.60
4010;DHT22;2019;48.200;11.548;2022-07-23T06:53:21;23.90;70.20
4010;DHT22;2019;48.200;11.548;2022-07-23T06:55:46;23.90;70.50
4010;DHT22;2019;48.200;11.548;2022-07-23T06:58:12;23.90;70.80
4010;DHT22;2019;48.200;11.548;2022-07-23T07:00:40;23.90;71.10
4010;DHT22;2019;48.200;11.548;2022-07-23T07:03:05;23.90;71.90
4010;DHT22;2019;48.200;11.548;2022-07-23T07:05:31;23.90;72.30
4010;DHT22;2019;48.200;11.548;2022-07-23T07:07:56;23.90;72.20
4010;DHT22;2019;48.200;11.548;2022-07-23T07:10:22;23.90;72.30
4010;DHT22;2019;48.200;11.548;2022-07-23T07:12:48;23.90;72.30
4010;DHT22;2019;48.200;11.548;2022-07-23T07:15:14;23.90;72.40
4010;DHT22;2019;48.200;11.548;2022-07-23T07:17:40;23.90;72.40
4010;DHT22;2019;48.200;11.548;2022-07-23T07:20:08;23.90;72.50
4010;DHT22;2019;48.200;11.548;2022-07-23T07:22:34;23.90;73.00
4010;DHT22;2019;48.200;11.548;2022-07-23T07:24:59;23.90;73.20
4010;DHT22;2019;48.200;11.548;2022-07-23T07:27:25;23.90;72.30
4010;DHT22;2019;48.200;11.548;2022-07-23T07:29:51;23.90;72.30
4010;DHT22;2019;48.200;11.548;2022-07-23T07:32:16;23.90;72.60
4010;DHT22;2019;48.200;11.548;2022-07-23T07:34:45;23.90;72.90
4010;DHT22;2019;48.200;11.548;2022-07-23T07:37:11;23.90;73.10
4010;DHT22;2019;48.200;11.548;2022-07-23T07:39:36;23.90;73.30
4010;DHT22;2019;48.200;11.548;2022-07-23T07:42:02;23.90;73.30
4010;DHT22;2019;48.200;11.548;2022-07-23T07:44:28;23.90;73.60
4010;DHT22;2019;48.200;11.548;2022-07-23T07:46:53;23.90;73.70
4010;DHT22;2019;48.200;11.548;2022-07-23T07:49:19;23.90;73.60
4010;DHT22;2019;48.200;11.548;2022-07-23T07:51:45;23.90;73.70
4010;DHT22;2019;48.200;11.548;2022-07-23T07:54:14;23.90;73.50
4010;DHT22;2019;48.200;11.548;2022-07-23T07:56:39;23.90;73.70
4010;DHT22;2019;48.200;11.548;2022-07-23T07:59:05;23.80;73.50
4010;DHT22;2019;48.200;11.548;2022-07-23T08:01:31;23.80;73.40
4010;DHT22;2019;48.200;11.548;2022-07-23T08:03:57;23.80;73.20
4010;DHT22;2019;48.200;11.548;2022-07-23T08:06:22;23.70;73.40
4010;DHT22;2019;48.200;11.548;2022-07-23T08:08:48;23.70;73.80
4010;DHT22;2019;48.200;11.548;2022-07-23T08:11:14;23.70;74.00
4010;DHT22;2019;48.200;11.548;2022-07-23T08:13:40;23.70;74.10
4010;DHT22;2019;48.200;11.548;2022-07-23T08:16:06;23.70;74.20
4010;DHT22;2019;48.200;11.548;2022-07-23T08:18:32;23.70;74.40
4010;DHT22;2019;48.200;11.548;2022-07-23T08:20:57;23.80;74.90
4010;DHT22;2019;48.200;11.548;2022-07-23T08:23:23;23.80;74.90
4010;DHT22;2019;48.200;11.548;2022-07-23T08:25:48;23.90;75.20
4010;DHT22;2019;48.200;11.548;2022-07-23T08:28:15;23.90;75.60
4010;DHT22;2019;48.200;11.548;2022-07-23T08:30:43;23.90;75.60
4010;DHT22;2019;48.200;11.548;2022-07-23T08:33:11;23.90;75.60
4010;DHT22;2019;48.200;11.548;2022-07-23T08:35:40;23.90;75.60
4010;DHT22;2019;48.200;11.548;2022-07-23T08:38:09;24.00;75.90
4010;DHT22;2019;48.200;11.548;2022-07-23T08:40:40;24.10;75.80
4010;DHT22;2019;48.200;11.548;2022-07-23T08:43:08;24.10;75.00
4010;DHT22;2019;48.200;11.548;2022-07-23T08:45:45;24.20;75.00
4010;DHT22;2019;48.200;11.548;2022-07-23T08:48:14;24.20;74.80
4010;DHT22;2019;48.200;11.548;2022-07-23T08:50:48;24.20;74.10
4010;DHT22;2019;48.200;11.548;2022-07-23T08:53:14;24.20;73.90
4010;DHT22;2019;48.200;11.548;2022-07-23T08:55:40;24.30;73.70
4010;DHT22;2019;48.200;11.548;2022-07-23T08:58:08;24.40;74.40
4010;DHT22;2019;48.200;11.548;2022-07-23T09:00:34;24.50;75.30
4010;DHT22;2019;48.200;11.548;2022-07-23T09:03:00;24.80;75.60
4010;DHT22;2019;48.200;11.548;2022-07-23T09:05:25;24.90;75.60
4010;DHT22;2019;48.200;11.548;2022-07-23T09:08:11;25.00;75.50
4010;DHT22;2019;48.200;11.548;2022-07-23T09:10:57;25.10;74.30
4010;DHT22;2019;48.200;11.548;2022-07-23T09:13:33;25.20;74.80
4010;DHT22;2019;48.200;11.548;2022-07-23T09:23:38;25.40;73.30
4010;DHT22;2019;48.200;11.548;2022-07-23T09:26:23;25.40;73.20
4010;DHT22;2019;48.200;11.548;2022-07-23T09:28:58;25.50;72.60
4010;DHT22;2019;48.200;11.548;2022-07-23T09:31:25;25.60;73.20
4010;DHT22;2019;48.200;11.548;2022-07-23T09:33:51;25.70;73.10
4010;DHT22;2019;48.200;11.548;2022-07-23T09:36:28;25.80;73.20
4010;DHT22;2019;48.200;11.548;2022-07-23T09:38:54;26.00;72.30
4010;DHT22;2019;48.200;11.548;2022-07-23T09:41:19;26.20;71.70
4010;DHT22;2019;48.200;11.548;2022-07-23T09:43:45;26.40;71.40
4010;DHT22;2019;48.200;11.548;2022-07-23T09:46:21;26.50;71.60
4010;DHT22;2019;48.200;11.548;2022-07-23T09:48:49;26.80;70.40
4010;DHT22;2019;48.200;11.548;2022-07-23T09:51:17;26.90;69.50
4010;DHT22;2019;48.200;11.548;2022-07-23T09:53:48;27.10;69.50
4010;DHT22;2019;48.200;11.548;2022-07-23T09:56:14;27.30;68.50
4010;DHT22;2019;48.200;11.548;2022-07-23T09:58:41;27.40;67.30
4010;DHT22;2019;48.200;11.548;2022-07-23T10:01:14;27.60;67.60
4010;DHT22;2019;48.200;11.548;2022-07-23T10:03:41;27.80;67.90
4010;DHT22;2019;48.200;11.548;2022-07-23T10:06:09;27.90;67.00
4010;DHT22;2019;48.200;11.548;2022-07-23T10:08:35;28.10;66.80
4010;DHT22;2019;48.200;11.548;2022-07-23T10:11:01;28.30;66.60
4010;DHT22;2019;48.200;11.548;2022-07-23T10:13:28;28.40;65.30
4010;DHT22;2019;48.200;11.548;2022-07-23T10:16:12;28.40;64.00
4010;DHT22;2019;48.200;11.548;2022-07-23T10:18:38;28.40;64.40
4010;DHT22;2019;48.200;11.548;2022-07-23T10:21:07;28.40;63.80
4010;DHT22;2019;48.200;11.548;2022-07-23T10:24:04;28.50;62.40
4010;DHT22;2019;48.200;11.548;2022-07-23T10:27:08;28.60;61.40
4010;DHT22;2019;48.200;11.548;2022-07-23T10:29:42;28.70;60.20
4010;DHT22;2019;48.200;11.548;2022-07-23T10:34:59;28.70;59.00
4010;DHT22;2019;48.200;11.548;2022-07-23T10:37:34;28.80;58.80
4010;DHT22;2019;48.200;11.548;2022-07-23T10:40:19;28.90;58.20
4010;DHT22;2019;48.200;11.548;2022-07-23T10:42:48;29.00;57.70
4010;DHT22;2019;48.200;11.548;2022-07-23T10:45:26;29.00;57.80
4010;DHT22;2019;48.200;11.548;2022-07-23T10:47:53;29.00;57.50
4010;DHT22;2019;48.200;11.548;2022-07-23T10:50:24;29.00;57.10
4010;DHT22;2019;48.200;11.548;2022-07-23T10:53:16;29.00;56.60
4010;DHT22;2019;48.200;11.548;2022-07-23T10:56:02;29.00;56.50
4010;DHT22;2019;48.200;11.548;2022-07-23T10:58:50;29.00;55.60
4010;DHT22;2019;48.200;11.548;2022-07-23T11:01:44;28.90;55.40
4010;DHT22;2019;48.200;11.548;2022-07-23T11:04:13;28.80;55.70
4010;DHT22;2019;48.200;11.548;2022-07-23T11:09:27;28.80;55.40
4010;DHT22;2019;48.200;11.548;2022-07-23T11:15:07;28.80;54.30
4010;DHT22;2019;48.200;11.548;2022-07-23T11:20:19;28.70;53.70
4010;DHT22;2019;48.200;11.548;2022-07-23T11:25:11;28.60;53.60
4010;DHT22;2019;48.200;11.548;2022-07-23T11:27:45;28.50;53.40
4010;DHT22;2019;48.200;11.548;2022-07-23T11:35:42;28.40;53.60
4010;DHT22;2019;48.200;11.548;2022-07-23T11:38:15;28.40;53.80
4010;DHT22;2019;48.200;11.548;2022-07-23T11:40:45;28.30;53.90
4010;DHT22;2019;48.200;11.548;2022-07-23T11:43:11;28.30;54.00
4010;DHT22;2019;48.200;11.548;2022-07-23T11:45:39;28.20;54.10
4010;DHT22;2019;48.200;11.548;2022-07-23T11:48:08;28.20;54.30
4010;DHT22;2019;48.200;11.548;2022-07-23T11:50:34;28.20;54.30
4010;DHT22;2019;48.200;11.548;2022-07-23T11:53:01;28.10;54.50
4010;DHT22;2019;48.200;11.548;2022-07-23T11:55:27;28.10;54.60
4010;DHT22;2019;48.200;11.548;2022-07-23T11:57:53;28.10;54.90
4010;DHT22;2019;48.200;11.548;2022-07-23T12:00:22;28.10;55.20
4010;DHT22;2019;48.200;11.548;2022-07-23T12:02:54;28.10;55.20
4010;DHT22;2019;48.200;11.548;2022-07-23T12:05:24;28.00;55.20
4010;DHT22;2019;48.200;11.548;2022-07-23T12:07:51;28.00;55.40
4010;DHT22;2019;48.200;11.548;2022-07-23T12:13:13;28.00;56.30
4010;DHT22;2019;48.200;11.548;2022-07-23T12:15:45;28.00;56.20
4010;DHT22;2019;48.200;11.548;2022-07-23T12:18:14;28.00;56.10
4010;DHT22;2019;48.200;11.548;2022-07-23T12:20:46;28.00;55.90
4010;DHT22;2019;48.200;11.548;2022-07-23T12:23:14;27.90;55.60
4010;DHT22;2019;48.200;11.548;2022-07-23T12:25:42;27.90;55.30
4010;DHT22;2019;48.200;11.548;2022-07-23T12:28:38;27.90;55.20
4010;DHT22;2019;48.200;11.548;2022-07-23T12:31:05;27.90;55.20
4010;DHT22;2019;48.200;11.548;2022-07-23T12:33:32;27.90;55.20
4010;DHT22;2019;48.200;11.548;2022-07-23T12:36:02;27.80;55.00
4010;DHT22;2019;48.200;11.548;2022-07-23T12:38:38;27.80;54.70
4010;DHT22;2019;48.200;11.548;2022-07-23T12:41:03;27.80;55.60
4010;DHT22;2019;48.200;11.548;2022-07-23T12:43:38;27.70;55.10
4010;DHT22;2019;48.200;11.548;2022-07-23T12:46:11;27.80;55.40
4010;DHT22;2019;48.200;11.548;2022-07-23T12:48:53;27.70;55.30
4010;DHT22;2019;48.200;11.548;2022-07-23T12:51:22;27.70;55.20
4010;DHT22;2019;48.200;11.548;2022-07-23T12:53:52;27.60;55.40
4010;DHT22;2019;48.200;11.548;2022-07-23T12:56:28;27.60;55.60
4010;DHT22;2019;48.200;11.548;2022-07-23T12:59:02;27.60;55.60
4010;DHT22;2019;48.200;11.548;2022-07-23T13:01:34;27.60;55.60
4010;DHT22;2019;48.200;11.548;2022-07-23T13:04:03;27.60;55.80
4010;DHT22;2019;48.200;11.548;2022-07-23T13:06:32;27.60;56.00
4010;DHT22;2019;48.200;11.548;2022-07-23T13:08:58;27.50;56.00
4010;DHT22;2019;48.200;11.548;2022-07-23T13:11:24;27.60;56.20
4010;DHT22;2019;48.200;11.548;2022-07-23T13:13:50;27.60;56.00
4010;DHT22;2019;48.200;11.548;2022-07-23T13:16:16;27.60;56.00
4010;DHT22;2019;48.200;11.548;2022-07-23T13:18:42;27.50;56.00
4010;DHT22;2019;48.200;11.548;2022-07-23T13:21:08;27.50;56.20
4010;DHT22;2019;48.200;11.548;2022-07-23T13:23:33;27.50;56.30
4010;DHT22;2019;48.200;11.548;2022-07-23T13:25:59;27.50;56.40
4010;DHT22;2019;48.200;11.548;2022-07-23T13:28:25;27.50;56.60
4010;DHT22;2019;48.200;11.548;2022-07-23T13:30:51;27.50;56.70
4010;DHT22;2019;48.200;11.548;2022-07-23T13:33:21;27.50;56.90
4010;DHT22;2019;48.200;11.548;2022-07-23T13:35:48;27.40;57.00
4010;DHT22;2019;48.200;11.548;2022-07-23T13:38:14;27.40;57.10
4010;DHT22;2019;48.200;11.548;2022-07-23T13:40:42;27.40;57.30
4010;DHT22;2019;48.200;11.548;2022-07-23T13:43:10;27.40;57.80
4010;DHT22;2019;48.200;11.548;2022-07-23T13:45:36;27.50;57.90
4010;DHT22;2019;48.200;11.548;2022-07-23T13:48:03;27.50;57.80
4010;DHT22;2019;48.200;11.548;2022-07-23T13:50:29;27.50;57.80
4010;DHT22;2019;48.200;11.548;2022-07-23T13:52:55;27.50;57.80
4010;DHT22;2019;48.200;11.548;2022-07-23T13:55:21;27.60;57.90
4010;DHT22;2019;48.200;11.548;2022-07-23T13:57:46;27.60;57.70
4010;DHT22;2019;48.200;11.548;2022-07-23T14:00:12;27.60;57.90
4010;DHT22;2019;48.200;11.548;2022-07-23T14:02:39;27.60;57.90
4010;DHT22;2019;48.200;11.548;2022-07-23T14:05:07;27.60;58.80
4010;DHT22;2019;48.200;11.548;2022-07-23T14:07:34;27.50;58.20
4010;DHT22;2019;48.200;11.548;2022-07-23T14:10:00;27.50;58.10
4010;DHT22;2019;48.200;11.548;2022-07-23T14:12:27;27.50;57.80
4010;DHT22;2019;48.200;11.548;2022-07-23T14:14:52;27.50;58.10
4010;DHT22;2019;48.200;11.548;2022-07-23T14:17:18;27.50;58.20
4010;DHT22;2019;48.200;11.548;2022-07-23T14:19:44;27.40;58.20
4010;DHT22;2019;48.200;11.548;2022-07-23T14:22:09;27.40;58.20
4010;DHT22;2019;48.200;11.548;2022-07-23T14:24:35;27.40;58.10
4010;DHT22;2019;48.200;11.548;2022-07-23T14:27:03;27.40;58.30
4010;DHT22;2019;48.200;11.548;2022-07-23T14:29:29;27.40;58.30
4010;DHT22;2019;48.200;11.548;2022-07-23T14:31:54;27.40;58.40
4010;DHT22;2019;48.200;11.548;2022-07-23T14:34:20;27.40;58.40
4010;DHT22;2019;48.200;11.548;2022-07-23T14:36:45;27.40;58.60
4010;DHT22;2019;48.200;11.548;2022-07-23T14:39:11;27.50;58.80
4010;DHT22;2019;48.200;11.548;2022-07-23T14:41:38;27.50;58.60
4010;DHT22;2019;48.200;11.548;2022-07-23T14:44:04;27.60;58.30
4010;DHT22;2019;48.200;11.548;2022-07-23T14:46:30;27.60;58.10
4010;DHT22;2019;48.200;11.548;2022-07-23T14:48:56;27.60;58.10
4010;DHT22;2019;48.200;11.548;2022-07-23T14:51:22;27.70;58.10
4010;DHT22;2019;48.200;11.548;2022-07-23T14:53:47;27.70;58.10
4010;DHT22;2019;48.200;11.548;2022-07-23T14:56:13;27.80;58.40
4010;DHT22;2019;48.200;11.548;2022-07-23T14:58:39;27.90;58.30
4010;DHT22;2019;48.200;11.548;2022-07-23T15:01:05;27.90;58.10
4010;DHT22;2019;48.200;11.548;2022-07-23T15:03:31;28.00;57.80
4010;DHT22;2019;48.200;11.548;2022-07-23T15:05:56;28.00;57.70
4010;DHT22;2019;48.200;11.548;2022-07-23T15:08:22;28.00;57.50
4010;DHT22;2019;48.200;11.548;2022-07-23T15:10:48;28.00;57.40
4010;DHT22;2019;48.200;11.548;2022-07-23T15:13:13;28.00;57.10
4010;DHT22;2019;48.200;11.548;2022-07-23T15:15:39;28.00;57.20
4010;DHT22;2019;48.200;11.548;2022-07-23T15:18:04;28.00;57.20
4010;DHT22;2019;48.200;11.548;2022-07-23T15:20:30;28.10;57.20
4010;DHT22;2019;48.200;11.548;2022-07-23T15:22:56;28.10;57.00
4010;DHT22;2019;48.200;11.548;2022-07-23T15:25:23;28.20;56.70
4010;DHT22;2019;48.200;11.548;2022-07-23T15:27:48;28.20;56.60
4010;DHT22;2019;48.200;11.548;2022-07-23T15:30:14;28.30;56.60
4010;DHT22;2019;48.200;11.548;2022-07-23T15:32:39;28.40;56.90
4010;DHT22;2019;48.200;11.548;2022-07-23T15:35:06;28.50;56.90
4010;DHT22;2019;48.200;11.548;2022-07-23T15:37:34;28.60;57.00
4010;DHT22;2019;48.200;11.548;2022-07-23T15:39:59;28.70;56.90
4010;DHT22;2019;48.200;11.548;2022-07-23T15:42:25;28.80;56.40
4010;DHT22;2019;48.200;11.548;2022-07-23T15:44:51;28.80;55.90
4010;DHT22;2019;48.200;11.548;2022-07-23T15:47:18;28.90;56.00
4010;DHT22;2019;48.200;11.548;2022-07-23T15:49:45;29.00;56.00
4010;DHT22;2019;48.200;11.548;2022-07-23T15:52:11;29.00;55.80
4010;DHT22;2019;48.200;11.548;2022-07-23T15:54:38;29.00;55.50
4010;DHT22;2019;48.200;11.548;2022-07-23T15:57:04;29.10;55.80
4010;DHT22;2019;48.200;11.548;2022-07-23T15:59:30;29.10;55.70
4010;DHT22;2019;48.200;11.548;2022-07-23T16:01:56;29.10;55.90
4010;DHT22;2019;48.200;11.548;2022-07-23T16:04:22;29.10;55.90
4010;DHT22;2019;48.200;11.548;2022-07-23T16:06:48;29.20;55.70
4010;DHT22;2019;48.200;11.548;2022-07-23T16:09:13;29.20;55.40
4010;DHT22;2019;48.200;11.548;2022-07-23T16:11:39;29.10;55.30
4010;DHT22;2019;48.200;11.548;2022-07-23T16:14:05;29.10;55.40
4010;DHT22;2019;48.200;11.548;2022-07-23T16:16:30;29.00;55.50